Portada
METAR-TAF:

METAR-TAF

Aeroports :

Yap, Micronèsia

latitud: 09-29N, longitud: 138-05E, altitud: 28 m

Observació

L'informe es va fer fa 23 minuts, a les 21:50 UTC
Vent calma
Temperatura 25°C
Humitat 94%
Pressió 1011 hPa
Visibilitat: 19.3 km
Núvols disperses a una alçada de 1600 ft, Cumulus congestus.
Cel ennuvolat a una alçada de 13000 ft
Cel cobert a una alçada de 30000 ft

METAR: PTYA 192150Z 00000KT 12SM SCT016TCU BKN130 OVC300 25/24 A2986 RMK SHRAE02 TCU ALQDS SLP112 T02490244

Hora: 08:13 (22:13 UTC)

Pronòstic

L'informe es va fer fa 4 hores i 52 minuts, a les 17:21 UTC
Pronòstic vàlid del 19 a les 18 UTC al 20 a les 18 UTC
Vent 5 kt amb direcció variable
Visibilitat: 10 km
Núvols disperses a una alçada de 1700 ft
Núvols disperses a una alçada de 15000 ft
Cel cobert a una alçada de 25000 ft
xàfecs en les proximitats

TAF: PTYA 191721Z 1918/2018 VRB05KT P6SM VCSH SCT017 SCT150 OVC250

Observacions i pronòstics meteorològics de més de 4000 aeroports (METAR i TAF).

Les estacions disponibles són els punts grocs i vermells al mapa.

Posi el ratolí al punt desitjat per veure el nom de l'estació.

Feu clic per veure les observacions i els pronòstics meteorològics.

Per canviar el mapa: feu clic els botons verds amb una creu de color negre per apropar; al botó verd amb un guió per allunyar la imatge; o en les fletxes verdes per a mapes adjacents.


METAR-TAF: